Dades meteomassalio
Diari Summary for Febrer 14, 2018 Units:  English    Metric   Both
« Previous Day
Next Day »
Diari Semanal Mensual Anual Personalitzat
  Maxima: Minima: Mijana:
Temperatura: TemperatureC °F 4.4 °F 9.7 °F
Rosada: DewpointC °F 0.8 °F 5.3 °F
Humitat: Humidity % 60 % 74 %
Velocitat del vent: WindSpeedKMH mph 0.0 mph 11.9 mph
Racha vent: WindSpeedGustKMH mph - -
Vent:- - WNW
Pressio: PressurehPa in 1018.8 in -
Pluja: 0.3 in    
Historical Graphs
 
 
Tabular Data for Febrer 14, 2018
Time Temperature Dew Point Pressure Wind Wind Speed Wind Gust Humidity Rainfall Rate (Hourly) solar Conditions
TemperatureC °F DewpointC °F PressurehPa in Calm     Humidity % HourlyPrecipMM in SolarRadiationWatts/m^2 W/m2 Conditions
00:03 6.1 °F 2.2 °F 1019.2 in NW 13.0 mph 13.0 mph 76 % 0.0 in 0.0 W/m2 CLR
00:08 6.1 °F 2.2 °F 1019.5 in NNW 16.7 mph 16.7 mph 76 % 0.0 in 0.0 W/m2 CLR
00:13 6.1 °F 2.2 °F 1019.5 in NNW 16.7 mph 16.7 mph 76 % 0.0 in 0.0 W/m2 CLR
00:18 6.1 °F 2.4 °F 1019.5 in NNW 16.7 mph 16.7 mph 77 % 0.0 in 0.0 W/m2 CLR
00:23 6.1 °F 2.4 °F 1019.5 in NNW 16.7 mph 16.7 mph 77 % 0.0 in 0.0 W/m2 CLR
00:28 5.6 °F 1.8 °F 1019.5 in NNW 11.1 mph 11.1 mph 77 % 0.0 in 0.0 W/m2 CLR
00:34 5.6 °F 1.8 °F 1019.5 in NNW 16.7 mph 16.7 mph 77 % 0.0 in 0.0 W/m2 CLR
00:39 5.6 °F 1.8 °F 1019.9 in NNW 16.7 mph 16.7 mph 77 % 0.0 in 0.0 W/m2 CLR
00:44 5.6 °F 2.0 °F 1019.5 in NNW 13.0 mph 13.0 mph 78 % 0.0 in 0.0 W/m2 CLR
00:49 5.0 °F 1.3 °F 1019.5 in NW 14.8 mph 14.8 mph 77 % 0.0 in 0.0 W/m2 CLR
00:54 5.0 °F 1.3 °F 1019.5 in NW 7.4 mph 7.4 mph 77 % 0.0 in 0.0 W/m2 CLR
00:59 5.0 °F 1.5 °F 1019.5 in WNW 11.1 mph 11.1 mph 78 % 0.0 in 0.0 W/m2 CLR
01:04 5.0 °F 1.5 °F 1019.5 in NW 13.0 mph 13.0 mph 78 % 0.0 in 0.0 W/m2 CLR
01:09 5.0 °F 1.3 °F 1019.5 in NW 16.7 mph 16.7 mph 77 % 0.0 in 0.0 W/m2 CLR
01:14 5.0 °F 1.3 °F 1019.5 in NW 14.8 mph 14.8 mph 77 % 0.0 in 0.0 W/m2 CLR
01:19 4.4 °F 0.8 °F 1019.5 in NW 13.0 mph 13.0 mph 77 % 0.0 in 0.0 W/m2 CLR
01:24 4.4 °F 0.9 °F 1019.5 in NW 11.1 mph 11.1 mph 78 % 0.0 in 0.0 W/m2 CLR
01:29 4.4 °F 0.9 °F 1019.5 in NW 12.9 mph 12.9 mph 78 % 0.0 in 0.0 W/m2 CLR
01:34 4.4 °F 0.8 °F 1019.9 in NW 14.8 mph 14.8 mph 77 % 0.0 in 0.0 W/m2 CLR
01:39 5.0 °F 1.3 °F 1019.9 in NW 14.8 mph 14.8 mph 77 % 0.0 in 0.0 W/m2 CLR
01:44 5.0 °F 1.3 °F 1019.9 in NW 13.0 mph 13.0 mph 77 % 0.0 in 0.0 W/m2 CLR
01:49 5.6 °F 1.8 °F 1019.9 in NW 13.0 mph 13.0 mph 77 % 0.0 in 0.0 W/m2 CLR
01:54 5.6 °F 1.8 °F 1019.5 in NW 11.3 mph 11.3 mph 77 % 0.0 in 0.0 W/m2 CLR
01:59 6.1 °F 2.4 °F 1019.5 in NW 11.3 mph 11.3 mph 77 % 0.0 in 0.0 W/m2 CLR
02:04 6.1 °F 2.4 °F 1019.5 in WNW 14.8 mph 14.8 mph 77 % 0.0 in 0.0 W/m2 CLR
02:09 6.1 °F 2.4 °F 1019.5 in WNW 13.0 mph 13.0 mph 77 % 0.0 in 0.0 W/m2 CLR
02:14 6.1 °F 2.4 °F 1019.5 in NW 13.0 mph 13.0 mph 77 % 0.0 in 0.0 W/m2 CLR
02:19 6.1 °F 2.2 °F 1019.5 in NW 11.1 mph 11.1 mph 76 % 0.0 in 0.0 W/m2 CLR
02:24 5.6 °F 1.8 °F 1019.5 in WNW 14.8 mph 14.8 mph 77 % 0.0 in 0.0 W/m2 CLR
02:29 5.6 °F 1.7 °F 1019.5 in NW 13.0 mph 13.0 mph 76 % 0.0 in 0.0 W/m2 CLR
02:34 5.6 °F 1.8 °F 1019.5 in NW 16.1 mph 16.1 mph 77 % 0.0 in 0.0 W/m2 CLR
02:39 6.1 °F 2.4 °F 1019.5 in NW 18.5 mph 18.5 mph 77 % 0.0 in 0.0 W/m2 CLR
02:44 6.1 °F 2.4 °F 1019.5 in NW 13.0 mph 13.0 mph 77 % 0.0 in 0.0 W/m2 CLR
02:49 6.1 °F 2.4 °F 1019.5 in NW 18.5 mph 18.5 mph 77 % 0.0 in 0.0 W/m2 CLR
02:54 6.1 °F 2.4 °F 1019.5 in NW 18.5 mph 18.5 mph 77 % 0.0 in 0.0 W/m2 CLR
02:59 6.1 °F 2.4 °F 1019.5 in NW 18.5 mph 18.5 mph 77 % 0.0 in 0.0 W/m2 CLR
03:04 6.7 °F 2.9 °F 1019.5 in NW 19.3 mph 19.3 mph 77 % 0.0 in 0.0 W/m2 CLR
03:09 6.7 °F 2.9 °F 1019.5 in NW 19.3 mph 19.3 mph 77 % 0.0 in 0.0 W/m2 CLR
03:14 6.7 °F 2.7 °F 1019.5 in WNW 20.9 mph 20.9 mph 76 % 0.0 in 0.0 W/m2 CLR
03:19 6.7 °F 2.7 °F 1019.5 in NW 18.5 mph 18.5 mph 76 % 0.0 in 0.0 W/m2 CLR
03:24 6.7 °F 2.7 °F 1019.5 in WNW 16.7 mph 16.7 mph 76 % 0.0 in 0.0 W/m2 CLR
03:29 6.7 °F 2.7 °F 1019.5 in NW 14.8 mph 14.8 mph 76 % 0.0 in 0.0 W/m2 CLR
03:34 6.7 °F 2.7 °F 1019.5 in NW 16.7 mph 16.7 mph 76 % 0.0 in 0.0 W/m2 CLR
03:39 6.7 °F 2.7 °F 1019.2 in WNW 18.5 mph 18.5 mph 76 % 0.0 in 0.0 W/m2 CLR
03:44 7.2 °F 3.3 °F 1019.2 in WNW 19.3 mph 19.3 mph 76 % 0.0 in 0.0 W/m2 CLR
03:49 7.2 °F 3.3 °F 1019.2 in NW 18.5 mph 18.5 mph 76 % 0.0 in 0.0 W/m2 CLR
03:54 7.2 °F 3.1 °F 1019.2 in NW 18.5 mph 18.5 mph 75 % 0.0 in 0.0 W/m2 CLR
03:59 7.8 °F 3.8 °F 1019.2 in NW 18.5 mph 18.5 mph 76 % 0.0 in 0.0 W/m2 CLR
04:04 7.8 °F 3.8 °F 1018.8 in NW 18.5 mph 18.5 mph 76 % 0.0 in 0.0 W/m2 CLR
04:09 7.2 °F 3.3 °F 1018.8 in NW 18.5 mph 18.5 mph 76 % 0.0 in 0.0 W/m2 CLR
04:14 7.2 °F 3.4 °F 1018.8 in NW 16.7 mph 16.7 mph 77 % 0.0 in 0.0 W/m2 CLR
04:19 7.2 °F 3.3 °F 1018.8 in NW 16.7 mph 16.7 mph 76 % 0.0 in 0.0 W/m2 CLR
04:24 7.8 °F 3.8 °F 1018.8 in NW 20.4 mph 20.4 mph 76 % 0.0 in 0.0 W/m2 CLR
04:29 7.8 °F 3.8 °F 1018.8 in NW 18.5 mph 18.5 mph 76 % 0.0 in 0.0 W/m2 CLR
04:34 7.8 °F 3.8 °F 1018.8 in NW 18.5 mph 18.5 mph 76 % 0.0 in 0.0 W/m2 CLR
04:39 7.8 °F 3.8 °F 1018.8 in NW 16.7 mph 16.7 mph 76 % 0.0 in 0.0 W/m2 CLR
04:44 7.8 °F 3.8 °F 1018.8 in NW 13.0 mph 13.0 mph 76 % 0.0 in 0.0 W/m2 CLR
04:49 7.8 °F 3.8 °F 1018.8 in NW 14.8 mph 14.8 mph 76 % 0.0 in 0.0 W/m2 CLR
04:54 7.8 °F 3.8 °F 1018.8 in WNW 14.5 mph 14.5 mph 76 % 0.0 in 0.0 W/m2 CLR
04:59 7.8 °F 3.8 °F 1018.8 in WNW 16.7 mph 16.7 mph 76 % 0.0 in 0.0 W/m2 CLR
05:04 7.8 °F 4.0 °F 1018.8 in WNW 16.1 mph 16.1 mph 77 % 0.0 in 0.0 W/m2 CLR
05:09 7.8 °F 4.2 °F 1018.8 in WNW 16.7 mph 16.7 mph 78 % 0.0 in 0.0 W/m2 CLR
05:14 7.8 °F 4.2 °F 1018.8 in WNW 16.7 mph 16.7 mph 78 % 0.0 in 0.0 W/m2 CLR
05:19 7.8 °F 4.4 °F 1018.8 in NW 14.8 mph 14.8 mph 79 % 0.0 in 0.0 W/m2 CLR
05:24 7.8 °F 4.4 °F 1018.8 in NW 13.0 mph 13.0 mph 79 % 0.0 in 0.0 W/m2 CLR
05:29 7.8 °F 4.6 °F 1018.8 in NW 16.1 mph 16.1 mph 80 % 0.0 in 0.0 W/m2 CLR
05:34 7.8 °F 4.6 °F 1018.8 in WSW 16.7 mph 16.7 mph 80 % 0.0 in 0.0 W/m2 CLR
05:39 7.8 °F 4.6 °F 1018.8 in NW 13.0 mph 13.0 mph 80 % 0.0 in 0.0 W/m2 CLR
05:44 7.2 °F 4.0 °F 1018.8 in WNW 18.5 mph 18.5 mph 80 % 0.0 in 0.0 W/m2 CLR
05:49 7.2 °F 4.0 °F 1018.8 in WNW 13.0 mph 13.0 mph 80 % 0.0 in 0.0 W/m2 CLR
05:54 7.2 °F 4.2 °F 1019.2 in WNW 16.7 mph 16.7 mph 81 % 0.0 in 0.0 W/m2 CLR
05:59 7.2 °F 4.3 °F 1018.8 in WNW 8.0 mph 8.0 mph 82 % 0.0 in 0.0 W/m2 CLR
06:04 7.2 °F 4.5 °F 1018.8 in NW 8.0 mph 8.0 mph 83 % 0.0 in 0.0 W/m2 CLR
06:09 7.2 °F 4.7 °F 1018.8 in Calm     84 % 0.0 in 0.0 W/m2 CLR
06:14 7.2 °F 4.7 °F 1018.8 in Calm     84 % 0.0 in 0.0 W/m2 CLR
06:19 7.2 °F 4.9 °F 1018.8 in Calm     85 % 0.0 in 0.0 W/m2 CLR
06:24 7.2 °F 4.9 °F 1019.2 in Calm     85 % 0.0 in 0.0 W/m2 CLR
06:29 7.2 °F 4.9 °F 1019.2 in Calm     85 % 0.0 in 0.0 W/m2 CLR
06:34 7.2 °F 5.1 °F 1019.2 in Calm     86 % 0.0 in 0.0 W/m2 CLR
06:39 7.2 °F 5.1 °F 1019.2 in Calm     86 % 0.0 in 0.0 W/m2 CLR
06:45 7.2 °F 5.1 °F 1019.2 in Calm     86 % 0.0 in 0.0 W/m2 CLR
06:50 7.2 °F 5.2 °F 1019.2 in Calm     87 % 0.0 in 0.0 W/m2 CLR
06:55 6.7 °F 4.7 °F 1018.8 in Calm     87 % 0.0 in 0.0 W/m2 CLR
07:00 7.2 °F 5.2 °F 1018.8 in West 9.3 mph 9.3 mph 87 % 0.0 in 0.0 W/m2 CLR
07:05 7.2 °F 5.2 °F 1019.2 in WNW 11.1 mph 11.1 mph 87 % 0.0 in 0.0 W/m2 CLR
07:10 7.2 °F 5.2 °F 1019.2 in WNW 9.3 mph 9.3 mph 87 % 0.0 in 0.0 W/m2 CLR
07:15 7.2 °F 5.2 °F 1019.2 in WNW 5.6 mph 5.6 mph 87 % 0.0 in 0.0 W/m2 CLR
07:20 7.2 °F 5.2 °F 1019.2 in West 11.3 mph 11.3 mph 87 % 0.0 in 0.0 W/m2 CLR
07:25 6.7 °F 4.5 °F 1019.2 in WNW 7.4 mph 7.4 mph 86 % 0.0 in 0.0 W/m2 CLR
07:30 6.7 °F 4.5 °F 1019.2 in WNW 13.0 mph 13.0 mph 86 % 0.0 in 0.0 W/m2 CLR
07:35 6.7 °F 4.5 °F 1019.2 in WNW 11.1 mph 11.1 mph 86 % 0.0 in 0.0 W/m2 CLR
07:40 6.7 °F 4.5 °F 1019.2 in West 13.0 mph 13.0 mph 86 % 0.0 in 0.0 W/m2 CLR
07:45 6.7 °F 4.5 °F 1019.2 in West 16.7 mph 16.7 mph 86 % 0.0 in 0.0 W/m2 OVC
07:50 6.7 °F 4.5 °F 1019.2 in West 14.8 mph 14.8 mph 86 % 0.0 in 0.0 W/m2 OVC
07:55 6.7 °F 4.5 °F 1019.2 in West 11.1 mph 11.1 mph 86 % 0.0 in 0.0 W/m2 OVC
08:00 7.2 °F 5.1 °F 1019.2 in WNW 13.0 mph 13.0 mph 86 % 0.0 in 0.0 W/m2 OVC
08:05 7.2 °F 5.1 °F 1019.2 in West 13.0 mph 13.0 mph 86 % 0.0 in 5.0 W/m2 OVC
08:10 7.2 °F 5.1 °F 1019.2 in West 13.0 mph 13.0 mph 86 % 0.0 in 7.0 W/m2 BKN
08:15 6.7 °F 4.5 °F 1019.2 in West 3.7 mph 3.7 mph 86 % 0.0 in 12.0 W/m2 BKN
08:20 6.7 °F 4.3 °F 1019.5 in West 7.4 mph 7.4 mph 85 % 0.0 in 16.0 W/m2 BKN
08:25 7.2 °F 4.9 °F 1019.5 in West 7.4 mph 7.4 mph 85 % 0.0 in 18.0 W/m2 BKN
08:30 7.2 °F 4.9 °F 1019.5 in West 5.6 mph 5.6 mph 85 % 0.0 in 21.0 W/m2 BKN
08:35 6.7 °F 4.2 °F 1019.5 in West 14.8 mph 14.8 mph 84 % 0.0 in 25.0 W/m2 BKN
08:40 6.7 °F 4.2 °F 1019.5 in West 7.4 mph 7.4 mph 84 % 0.0 in 30.0 W/m2 BKN
08:45 6.7 °F 4.0 °F 1019.5 in West 1.9 mph 1.9 mph 83 % 0.0 in 40.0 W/m2 BKN
08:50 6.1 °F 3.4 °F 1019.5 in Calm     83 % 0.0 in 56.0 W/m2 SCT
08:55 6.1 °F 3.6 °F 1019.5 in Calm     84 % 0.0 in 60.0 W/m2 SCT
09:00 6.1 °F 3.4 °F 1019.5 in Calm     83 % 0.0 in 76.0 W/m2 SCT
09:05 6.1 °F 3.6 °F 1019.5 in Calm     84 % 0.0 in 60.0 W/m2 FEW
09:10 6.1 °F 3.4 °F 1019.5 in Calm     83 % 0.0 in 88.0 W/m2 FEW
09:15 6.1 °F 3.4 °F 1019.5 in Calm     83 % 0.0 in 84.0 W/m2 FEW
09:20 6.1 °F 3.4 °F 1019.5 in NW 14.8 mph 14.8 mph 83 % 0.0 in 90.0 W/m2 CLR
09:25 6.1 °F 2.9 °F 1019.5 in WNW 16.7 mph 16.7 mph 80 % 0.0 in 100.0 W/m2 CLR
09:30 6.7 °F 2.9 °F 1019.5 in WNW 16.7 mph 16.7 mph 77 % 0.0 in 130.0 W/m2 CLR
09:35 7.2 °F 3.1 °F 1019.5 in NW 16.7 mph 16.7 mph 75 % 0.0 in 204.0 W/m2 CLR
09:40 7.8 °F 3.4 °F 1019.5 in WNW 14.8 mph 14.8 mph 74 % 0.0 in 223.0 W/m2 CLR
09:45 8.9 °F 4.3 °F 1019.9 in WNW 7.4 mph 7.4 mph 73 % 0.0 in 218.0 W/m2 CLR
09:50 9.4 °F 4.8 °F 1019.9 in WNW 16.7 mph 16.7 mph 73 % 0.0 in 236.0 W/m2 CLR
09:55 10.6 °F 5.7 °F 1019.9 in NW 18.5 mph 18.5 mph 72 % 0.0 in 267.0 W/m2 CLR
10:00 10.6 °F 5.7 °F 1019.9 in NW 18.5 mph 18.5 mph 72 % 0.0 in 297.0 W/m2 CLR
10:05 11.1 °F 5.8 °F 1019.9 in NW 12.9 mph 12.9 mph 70 % 0.0 in 274.0 W/m2 CLR
10:10 11.1 °F 5.8 °F 1019.9 in NW 22.5 mph 22.5 mph 70 % 0.0 in 323.0 W/m2 CLR
10:15 11.1 °F 5.6 °F 1019.9 in NNW 5.6 mph 5.6 mph 69 % 0.0 in 336.0 W/m2 CLR
10:20 11.7 °F 6.2 °F 1020.2 in NNW 29.6 mph 29.6 mph 69 % 0.0 in 369.0 W/m2 CLR
10:25 12.2 °F 6.7 °F 1019.9 in WNW 22.2 mph 22.2 mph 69 % 0.0 in 359.0 W/m2 CLR
10:30 12.2 °F 6.3 °F 1020.2 in NNW 22.2 mph 22.2 mph 67 % 0.0 in 348.0 W/m2 CLR
10:35 12.2 °F 6.3 °F 1020.2 in NNW 31.5 mph 31.5 mph 67 % 0.0 in 338.0 W/m2 CLR
10:40 12.2 °F 6.3 °F 1020.2 in NW 20.4 mph 20.4 mph 67 % 0.0 in 408.0 W/m2 CLR
10:45 12.8 °F 6.6 °F 1020.2 in NW 27.8 mph 27.8 mph 66 % 0.0 in 397.0 W/m2 CLR
10:50 12.8 °F 6.6 °F 1020.2 in NW 24.1 mph 24.1 mph 66 % 0.0 in 399.0 W/m2 CLR
10:56 12.8 °F 6.3 °F 1020.2 in NNW 31.5 mph 31.5 mph 65 % 0.0 in 434.0 W/m2 CLR
11:00 13.3 °F 6.9 °F 1020.2 in North 25.9 mph 25.9 mph 65 % 0.0 in 413.0 W/m2 CLR
11:06 13.3 °F 6.9 °F 1020.2 in NNW 35.2 mph 35.2 mph 65 % 0.0 in 489.0 W/m2 CLR
11:11 13.3 °F 6.4 °F 1020.5 in NW 46.3 mph 46.3 mph 63 % 0.0 in 543.0 W/m2 CLR
11:16 13.9 °F 6.9 °F 1020.2 in NW 37.0 mph 37.0 mph 63 % 0.0 in 434.0 W/m2 CLR
11:21 13.3 °F 6.4 °F 1020.5 in NNW 42.6 mph 42.6 mph 63 % 0.0 in 283.0 W/m2 CLR
11:26 13.3 °F 6.7 °F 1020.2 in NW 31.5 mph 31.5 mph 64 % 0.0 in 241.0 W/m2 CLR
11:31 13.3 °F 6.4 °F 1020.2 in NNW 38.9 mph 38.9 mph 63 % 0.0 in 330.0 W/m2 CLR
11:36 13.3 °F 6.7 °F 1020.5 in North 27.8 mph 27.8 mph 64 % 0.0 in 309.0 W/m2 CLR
11:41 13.9 °F 7.2 °F 1020.5 in North 31.5 mph 31.5 mph 64 % 0.0 in 548.0 W/m2 CLR
11:46 13.9 °F 6.7 °F 1020.5 in North 40.7 mph 40.7 mph 62 % 0.0 in 345.0 W/m2 CLR
11:51 13.9 °F 6.7 °F 1020.5 in NW 31.5 mph 31.5 mph 62 % 0.0 in 265.0 W/m2 CLR
11:56 13.9 °F 6.7 °F 1020.5 in NW 33.3 mph 33.3 mph 62 % 0.0 in 292.0 W/m2 CLR
12:01 13.9 °F 6.9 °F 1020.5 in North 29.6 mph 29.6 mph 63 % 0.0 in 290.0 W/m2 CLR
12:06 13.9 °F 6.9 °F 1020.5 in North 27.8 mph 27.8 mph 63 % 0.0 in 350.0 W/m2 CLR
12:11 14.4 °F 7.5 °F 1020.5 in NW 31.5 mph 31.5 mph 63 % 0.0 in 490.0 W/m2 CLR
12:16 14.4 °F 7.5 °F 1020.5 in NNW 18.5 mph 18.5 mph 63 % 0.0 in 506.0 W/m2 CLR
12:21 15.0 °F 7.8 °F 1020.2 in North 31.5 mph 31.5 mph 62 % 0.0 in 455.0 W/m2 CLR
12:26 15.0 °F 7.8 °F 1020.5 in North 33.3 mph 33.3 mph 62 % 0.0 in 427.0 W/m2 CLR
12:31 15.0 °F 7.8 °F 1020.5 in North 33.3 mph 33.3 mph 62 % 0.0 in 385.0 W/m2 CLR
12:36 15.0 °F 7.8 °F 1020.2 in North 27.8 mph 27.8 mph 62 % 0.0 in 506.0 W/m2 CLR
12:41 15.0 °F 7.3 °F 1020.2 in NW 31.5 mph 31.5 mph 60 % 0.0 in 548.0 W/m2 CLR
12:46 15.0 °F 7.6 °F 1020.2 in North 31.5 mph 31.5 mph 61 % 0.0 in 403.0 W/m2 CLR
12:51 15.0 °F 7.3 °F 1020.2 in North 27.8 mph 27.8 mph 60 % 0.0 in 397.0 W/m2 CLR
12:56 15.0 °F 7.6 °F 1020.2 in NNW 24.1 mph 24.1 mph 61 % 0.0 in 373.0 W/m2 CLR
13:01 15.0 °F 7.6 °F 1019.9 in North 30.6 mph 30.6 mph 61 % 0.0 in 366.0 W/m2 CLR
13:06 15.0 °F 7.8 °F 1019.9 in North 22.2 mph 22.2 mph 62 % 0.0 in 380.0 W/m2 CLR
13:11 15.0 °F 7.8 °F 1019.9 in North 20.4 mph 20.4 mph 62 % 0.0 in 420.0 W/m2 CLR
13:16 15.0 °F 7.6 °F 1019.9 in North 31.5 mph 31.5 mph 61 % 0.0 in 345.0 W/m2 CLR
13:21 15.0 °F 7.8 °F 1019.9 in NNE 17.7 mph 17.7 mph 62 % 0.0 in 294.0 W/m2 CLR
13:26 14.4 °F 7.5 °F 1019.9 in NNW 18.5 mph 18.5 mph 63 % 0.0 in 343.0 W/m2 CLR
13:31 14.4 °F 7.7 °F 1019.9 in NE 20.4 mph 20.4 mph 64 % 0.0 in 223.0 W/m2 CLR
13:36 14.4 °F 7.9 °F 1019.9 in NNE 14.8 mph 14.8 mph 65 % 0.0 in 186.0 W/m2 CLR
13:41 13.9 °F 7.4 °F 1019.9 in North 16.7 mph 16.7 mph 65 % 0.0 in 213.0 W/m2 CLR
13:46 13.3 °F 7.1 °F 1019.9 in NW 20.4 mph 20.4 mph 66 % 0.0 in 200.0 W/m2 CLR
13:51 13.9 °F 7.6 °F 1019.9 in NNW 11.1 mph 11.1 mph 66 % 0.0 in 339.0 W/m2 CLR
13:56 13.9 °F 8.1 °F 1019.9 in North 20.9 mph 20.9 mph 68 % 0.0 in 510.0 W/m2 CLR
14:01 14.4 °F 8.2 °F 1019.9 in North 11.3 mph 11.3 mph 66 % 0.0 in 367.0 W/m2 CLR
14:06 14.4 °F 8.2 °F 1019.9 in North 22.2 mph 22.2 mph 66 % 0.0 in 295.0 W/m2 CLR
14:11 14.4 °F 7.9 °F 1019.9 in NNW 18.5 mph 18.5 mph 65 % 0.0 in 262.0 W/m2 CLR
14:16 14.4 °F 8.2 °F 1019.9 in NNW 14.8 mph 14.8 mph 66 % 0.0 in 272.0 W/m2 CLR
14:21 14.4 °F 7.9 °F 1019.9 in NNW 24.1 mph 24.1 mph 65 % 0.0 in 279.0 W/m2 CLR
14:26 14.4 °F 7.9 °F 1019.5 in NNW 18.5 mph 18.5 mph 65 % 0.0 in 323.0 W/m2 CLR
14:31 15.0 °F 8.4 °F 1019.5 in NNW 20.9 mph 20.9 mph 65 % 0.0 in 260.0 W/m2 CLR
14:32 15.0 °F 8.4 °F 1019.5 in North 24.1 mph 24.1 mph 65 % 0.0 in 260.0 W/m2 CLR
14:37 15.0 °F 8.0 °F 1019.5 in NNW 22.2 mph 22.2 mph 63 % 0.0 in 197.0 W/m2 CLR
14:42 14.4 °F 7.7 °F 1019.5 in NNW 18.5 mph 18.5 mph 64 % 0.0 in 181.0 W/m2 CLR
14:47 14.4 °F 7.9 °F 1019.5 in NNW 22.2 mph 22.2 mph 65 % 0.0 in 181.0 W/m2 CLR
14:52 14.4 °F 7.9 °F 1019.5 in NNW 18.5 mph 18.5 mph 65 % 0.0 in 183.0 W/m2 CLR
14:57 14.4 °F 8.4 °F 1019.5 in North 14.5 mph 14.5 mph 67 % 0.0 in 197.0 W/m2 CLR
15:02 14.4 °F 7.9 °F 1019.5 in North 14.8 mph 14.8 mph 65 % 0.0 in 227.0 W/m2 CLR
15:07 14.4 °F 7.9 °F 1019.5 in NNW 27.8 mph 27.8 mph 65 % 0.0 in 204.0 W/m2 CLR
15:12 14.4 °F 7.7 °F 1019.5 in NNE 13.0 mph 13.0 mph 64 % 0.0 in 197.0 W/m2 CLR
15:17 14.4 °F 7.9 °F 1019.9 in NNE 11.3 mph 11.3 mph 65 % 0.0 in 192.0 W/m2 CLR
15:22 14.4 °F 8.2 °F 1019.9 in North 1.9 mph 1.9 mph 66 % 0.0 in 181.0 W/m2 CLR
15:27 14.4 °F 7.9 °F 1019.9 in North 16.7 mph 16.7 mph 65 % 0.0 in 179.0 W/m2 CLR
15:32 14.4 °F 7.9 °F 1019.9 in NNE 18.5 mph 18.5 mph 65 % 0.0 in 190.0 W/m2 CLR
15:37 14.4 °F 7.9 °F 1019.9 in North 22.2 mph 22.2 mph 65 % 0.0 in 183.0 W/m2 CLR
15:42 13.9 °F 7.6 °F 1019.9 in North 14.8 mph 14.8 mph 66 % 0.0 in 148.0 W/m2 CLR
15:47 13.9 °F 8.1 °F 1019.9 in NE 14.5 mph 14.5 mph 68 % 0.0 in 132.0 W/m2 CLR
15:52 13.3 °F 7.6 °F 1019.9 in North 14.8 mph 14.8 mph 68 % 0.0 in 127.0 W/m2 CLR
15:57 13.3 °F 7.8 °F 1019.9 in North 9.3 mph 9.3 mph 69 % 0.0 in 135.0 W/m2 CLR
16:02 13.3 °F 7.8 °F 1019.9 in NNE 5.6 mph   69 % 0.0 in 91.0 W/m2 CLR
16:07 13.3 °F 7.8 °F 1019.9 in Calm     69 % 0.0 in 65.0 W/m2 CLR
16:12 13.3 °F 7.8 °F 1019.9 in NNW 9.3 mph 9.3 mph 69 % 0.0 in 53.0 W/m2 FEW
16:17 13.3 °F 8.0 °F 1020.2 in North 11.3 mph 11.3 mph 70 % 0.0 in 47.0 W/m2 SCT
16:22 13.3 °F 8.0 °F 1020.2 in Calm     70 % 0.0 in 47.0 W/m2 SCT
16:27 13.3 °F 8.2 °F 1020.2 in Calm     71 % 0.0 in 42.0 W/m2 SCT
16:32 13.3 °F 8.4 °F 1020.2 in Calm     72 % 0.0 in 37.0 W/m2 BKN
16:37 12.8 °F 7.8 °F 1020.2 in Calm     72 % 0.0 in 37.0 W/m2 BKN
16:42 12.8 °F 8.3 °F 1020.5 in Calm     74 % 0.0 in 39.0 W/m2 BKN
16:47 12.8 °F 8.7 °F 1020.5 in Calm     76 % 0.0 in 33.0 W/m2 BKN
16:52 12.2 °F 8.3 °F 1020.5 in Calm     77 % 0.0 in 65.0 W/m2 BKN
16:57 12.2 °F 8.5 °F 1020.5 in Calm     78 % 0.3 in 56.0 W/m2 RA
17:02 12.2 °F 8.7 °F 1020.5 in Calm     79 % 0.3 in 62.0 W/m2 SCT
17:03 12.2 °F 8.9 °F 1020.5 in Calm     80 % 0.3 in 65.0 W/m2 SCT
17:08 12.2 °F 8.9 °F 1020.2 in Calm     80 % 0.3 in 62.0 W/m2 SCT
17:13 12.2 °F 8.9 °F 1020.2 in Calm     80 % 0.3 in 39.0 W/m2 SCT
17:18 11.7 °F 8.5 °F 1020.2 in Calm     81 % 0.3 in 35.0 W/m2 SCT
17:23 11.7 °F 8.7 °F 1020.2 in Calm     82 % 0.3 in 33.0 W/m2 BKN
17:28 11.7 °F 8.5 °F 1020.2 in Calm     81 % 0.3 in 32.0 W/m2 BKN
17:33 11.7 °F 8.5 °F 1020.2 in Calm     81 % 0.3 in 30.0 W/m2 BKN
17:38 11.7 °F 8.5 °F 1020.5 in Calm     81 % 0.3 in 30.0 W/m2 BKN
17:43 11.7 °F 8.7 °F 1020.5 in Calm     82 % 0.3 in 28.0 W/m2 BKN
17:48 11.7 °F 8.5 °F 1020.5 in Calm     81 % 0.3 in 23.0 W/m2 BKN
17:53 11.7 °F 8.7 °F 1020.5 in Calm     82 % 0.0 in 25.0 W/m2 BKN
17:58 11.7 °F 8.5 °F 1020.5 in Calm     81 % 0.0 in 25.0 W/m2 BKN
18:04 11.7 °F 8.5 °F 1020.5 in Calm     81 % 0.0 in 21.0 W/m2 BKN
18:09 11.7 °F 8.3 °F 1020.5 in Calm     80 % 0.0 in 18.0 W/m2 BKN
18:14 11.7 °F 8.2 °F 1020.5 in NW 5.6 mph 5.6 mph 79 % 0.0 in 14.0 W/m2 BKN
18:19 11.7 °F 7.8 °F 1020.5 in WNW 11.1 mph 11.1 mph 77 % 0.0 in 11.0 W/m2 BKN
18:24 11.7 °F 7.6 °F 1020.5 in NW 11.1 mph 11.1 mph 76 % 0.0 in 7.0 W/m2 BKN
18:29 11.7 °F 7.6 °F 1020.5 in NW 8.0 mph 8.0 mph 76 % 0.0 in 0.0 W/m2 OVC
18:34 11.1 °F 6.8 °F 1020.5 in NW 13.0 mph 13.0 mph 75 % 0.0 in 0.0 W/m2 OVC
18:39 11.1 °F 6.8 °F 1020.5 in Calm     75 % 0.0 in 0.0 W/m2 OVC
18:44 11.1 °F 6.8 °F 1020.9 in Calm     75 % 0.0 in 0.0 W/m2 CLR
18:49 11.1 °F 6.8 °F 1020.9 in Calm     75 % 0.0 in 0.0 W/m2 CLR
18:54 11.1 °F 6.7 °F 1020.5 in WNW 16.7 mph 16.7 mph 74 % 0.0 in 0.0 W/m2 CLR
18:59 11.1 °F 6.4 °F 1020.5 in NW 14.8 mph 14.8 mph 73 % 0.0 in 0.0 W/m2 CLR
19:04 11.1 °F 6.4 °F 1020.5 in NNW 7.4 mph 7.4 mph 73 % 0.0 in 0.0 W/m2 CLR
19:09 11.1 °F 6.7 °F 1020.5 in Calm     74 % 0.0 in 0.0 W/m2 CLR
19:14 11.1 °F 6.8 °F 1020.9 in Calm     75 % 0.0 in 0.0 W/m2 CLR
19:19 11.1 °F 7.1 °F 1020.9 in Calm     76 % 0.0 in 0.0 W/m2 CLR
19:24 11.1 °F 7.1 °F 1020.9 in Calm     76 % 0.0 in 0.0 W/m2 CLR
19:29 10.6 °F 6.5 °F 1020.9 in Calm     76 % 0.0 in 0.0 W/m2 CLR
19:34 10.6 °F 6.7 °F 1020.9 in Calm     77 % 0.0 in 0.0 W/m2 CLR
19:39 10.6 °F 6.7 °F 1020.9 in Calm     77 % 0.0 in 0.0 W/m2 CLR
19:44 10.0 °F 6.2 °F 1020.9 in Calm     77 % 0.0 in 0.0 W/m2 CLR
19:49 10.0 °F 6.3 °F 1020.9 in Calm     78 % 0.0 in 0.0 W/m2 CLR
19:54 9.4 °F 5.8 °F 1021.2 in Calm     78 % 0.0 in 0.0 W/m2 CLR
19:59 9.4 °F 5.8 °F 1021.2 in Calm     78 % 0.0 in 0.0 W/m2 CLR
20:04 9.4 °F 5.8 °F 1021.2 in Calm     78 % 0.0 in 0.0 W/m2 CLR
20:09 9.4 °F 6.0 °F 1021.2 in Calm     79 % 0.0 in 0.0 W/m2 CLR
20:14 9.4 °F 6.0 °F 1021.2 in Calm     79 % 0.0 in 0.0 W/m2 CLR
20:19 9.4 °F 6.0 °F 1021.2 in Calm     79 % 0.0 in 0.0 W/m2 CLR
20:24 9.4 °F 6.0 °F 1021.2 in Calm     79 % 0.0 in 0.0 W/m2 CLR
20:29 9.4 °F 6.0 °F 1021.2 in Calm     79 % 0.0 in 0.0 W/m2 CLR
20:34 9.4 °F 6.0 °F 1021.2 in Calm     79 % 0.0 in 0.0 W/m2 CLR
20:39 9.4 °F 5.8 °F 1021.6 in Calm     78 % 0.0 in 0.0 W/m2 CLR
20:44 9.4 °F 5.8 °F 1021.6 in Calm     78 % 0.0 in 0.0 W/m2 CLR
20:49 9.4 °F 5.8 °F 1021.6 in Calm     78 % 0.0 in 0.0 W/m2 CLR
20:54 9.4 °F 5.8 °F 1021.6 in Calm     78 % 0.0 in 0.0 W/m2 CLR
20:59 9.4 °F 6.0 °F 1021.6 in Calm     79 % 0.0 in 0.0 W/m2 CLR
21:04 9.4 °F 6.0 °F 1021.6 in Calm     79 % 0.0 in 0.0 W/m2 CLR
21:09 9.4 °F 6.0 °F 1021.6 in Calm     79 % 0.0 in 0.0 W/m2 CLR
21:14 9.4 °F 5.8 °F 1021.6 in Calm     78 % 0.0 in 0.0 W/m2 CLR
21:19 9.4 °F 5.8 °F 1021.6 in Calm     78 % 0.0 in 0.0 W/m2 CLR
21:24 9.4 °F 5.6 °F 1021.6 in Calm     77 % 0.0 in 0.0 W/m2 CLR
21:29 8.9 °F 5.1 °F 1021.6 in WNW 5.6 mph 5.6 mph 77 % 0.0 in 0.0 W/m2 CLR
21:34 8.9 °F 4.7 °F 1021.6 in WNW 3.2 mph   75 % 0.0 in 0.0 W/m2 CLR
21:39 8.9 °F 4.5 °F 1021.6 in WNW 1.6 mph 1.6 mph 74 % 0.0 in 0.0 W/m2 CLR
21:44 8.9 °F 4.5 °F 1021.6 in WNW 1.9 mph   74 % 0.0 in 0.0 W/m2 CLR
21:49 8.9 °F 4.3 °F 1021.6 in WNW 11.3 mph 11.3 mph 73 % 0.0 in 0.0 W/m2 CLR
21:54 8.9 °F 4.1 °F 1021.6 in WNW 4.8 mph 4.8 mph 72 % 0.0 in 0.0 W/m2 CLR
21:59 8.9 °F 4.1 °F 1021.6 in WNW 11.1 mph 11.1 mph 72 % 0.0 in 0.0 W/m2 CLR
22:04 8.9 °F 4.1 °F 1021.6 in NW 1.9 mph 1.9 mph 72 % 0.0 in 0.0 W/m2 CLR
22:09 8.9 °F 4.1 °F 1021.6 in NW 5.6 mph 5.6 mph 72 % 0.0 in 0.0 W/m2 CLR
22:14 9.4 °F 4.7 °F 1021.6 in NW 5.6 mph 5.6 mph 72 % 0.0 in 0.0 W/m2 CLR
22:19 8.9 °F 4.1 °F 1021.6 in NW 6.4 mph 6.4 mph 72 % 0.0 in 0.0 W/m2 CLR
22:24 8.9 °F 4.1 °F 1021.6 in NW 3.7 mph 3.7 mph 72 % 0.0 in 0.0 W/m2 CLR
22:29 8.9 °F 4.1 °F 1021.6 in Calm     72 % 0.0 in 0.0 W/m2 CLR
22:34 8.9 °F 4.1 °F 1021.6 in WNW 5.6 mph 5.6 mph 72 % 0.0 in 0.0 W/m2 CLR
22:39 8.9 °F 4.1 °F 1021.6 in WNW 3.7 mph 3.7 mph 72 % 0.0 in 0.0 W/m2 CLR
22:44 8.9 °F 4.1 °F 1021.6 in NW 1.9 mph   72 % 0.0 in 0.0 W/m2 CLR
22:49 8.9 °F 4.3 °F 1021.6 in WNW 3.2 mph 3.2 mph 73 % 0.0 in 0.0 W/m2 CLR
22:54 8.3 °F 3.8 °F 1021.6 in WNW 5.6 mph 5.6 mph 73 % 0.0 in 0.0 W/m2 CLR
22:59 8.3 °F 3.8 °F 1021.6 in WNW 5.6 mph 5.6 mph 73 % 0.0 in 0.0 W/m2 CLR
23:04 8.3 °F 3.8 °F 1021.6 in NW 7.4 mph 7.4 mph 73 % 0.0 in 0.0 W/m2 CLR
23:05 8.3 °F 3.8 °F 1021.6 in NW 7.4 mph 7.4 mph 73 % 0.0 in 0.0 W/m2 CLR
23:10 7.8 °F 3.4 °F 1021.6 in NW 5.6 mph 5.6 mph 74 % 0.0 in 0.0 W/m2 CLR
23:15 7.8 °F 3.4 °F 1021.6 in NW 5.6 mph 5.6 mph 74 % 0.0 in 0.0 W/m2 CLR
23:20 7.2 °F 2.9 °F 1021.6 in NW 5.6 mph 5.6 mph 74 % 0.0 in 0.0 W/m2 CLR
23:25 7.2 °F 3.1 °F 1021.6 in NW 7.4 mph 7.4 mph 75 % 0.0 in 0.0 W/m2 CLR
23:30 7.2 °F 3.1 °F 1021.6 in NW 5.6 mph 5.8 mph 75 % 0.0 in 0.0 W/m2 CLR
23:35 7.2 °F 3.1 °F 1021.6 in NW 4.8 mph 4.8 mph 75 % 0.0 in 0.0 W/m2 CLR
23:40 7.2 °F 3.3 °F 1021.6 in NW 5.6 mph 5.6 mph 76 % 0.0 in 0.0 W/m2 CLR
23:45 7.2 °F 3.1 °F 1021.6 in NW 5.6 mph 5.6 mph 75 % 0.0 in 0.0 W/m2 CLR
23:50 6.7 °F 2.7 °F 1021.6 in WNW 5.6 mph 5.6 mph 76 % 0.0 in 0.0 W/m2 CLR
23:55 6.7 °F 2.6 °F 1021.6 in WNW 5.6 mph 5.6 mph 75 % 0.0 in 0.0 W/m2 CLR
Lo Temps de Massalio
Compliments of Weather Underground - 1.25 mb